Time;durP1;ratioP1;P1;durP2;ratioP2;P2;SDS_P1;SDS_P2;PMS_P1;PMS_P2;Temp;Humidity;BMP_temperature;BMP_pressure;BME280_temperature;BME280_humidity;BME280_pressure;Samples;Min_cycle;Max_cycle;Signal;HPM_P1;HPM_P2
2023/10/15 00:01:31;;;;;;;0.50;0.50;;;;;;;12.58;91.12;100400.16;5053319;28;20036;-67
2023/10/15 00:03:57;;;;;;;0.40;0.40;;;;;;;12.61;90.69;100394.72;5052999;28;20040;-67
2023/10/15 00:06:22;;;;;;;0.40;0.40;;;;;;;12.64;90.07;100391.94;5050802;28;20025;-67
2023/10/15 00:08:48;;;;;;;0.50;0.50;;;;;;;12.61;89.81;100394.72;5052515;28;20376;-67
2023/10/15 00:11:17;;;;;;;0.38;0.38;;;;;;;12.67;90.05;100393.59;5069131;28;20059;-66
2023/10/15 00:13:43;;;;;;;0.50;0.50;;;;;;;12.70;89.23;100385.53;5050101;28;20020;-67
2023/10/15 00:16:09;;;;;;;0.40;0.40;;;;;;;12.70;89.95;100388.19;5054235;28;20388;-67
2023/10/15 00:18:36;;;;;;;0.40;0.40;;;;;;;12.68;89.71;100384.69;5048741;28;20041;-67
2023/10/15 00:21:11;;;;;;;0.50;0.50;;;;;;;12.67;89.93;100389.16;5050880;28;20021;-68
2023/10/15 00:23:37;;;;;;;0.50;0.50;;;;;;;12.44;89.80;100357.06;5060295;28;20686;-68
2023/10/15 00:26:04;;;;;;;0.40;0.40;;;;;;;12.63;89.49;100382.19;5069099;28;20038;-68
2023/10/15 00:28:30;;;;;;;0.40;0.40;;;;;;;12.70;89.93;100378.38;5062237;28;20035;-68
2023/10/15 00:30:55;;;;;;;0.40;0.40;;;;;;;12.74;90.48;100380.00;5070308;28;20028;-67
2023/10/15 00:33:21;;;;;;;0.40;0.40;;;;;;;12.77;90.33;100384.34;5049497;28;20090;-68
2023/10/15 00:35:50;;;;;;;0.40;0.40;;;;;;;12.75;90.15;100376.41;5070391;28;20024;-68
2023/10/15 00:38:19;;;;;;;0.40;0.40;;;;;;;12.84;89.89;100380.56;5068830;28;20498;-68
2023/10/15 00:40:45;;;;;;;0.30;0.30;;;;;;;12.87;90.24;100383.09;5052279;28;20104;-68
2023/10/15 00:43:15;;;;;;;0.50;0.50;;;;;;;12.86;89.82;100384.91;5058136;28;20077;-68
2023/10/15 00:45:44;;;;;;;0.40;0.40;;;;;;;12.79;89.96;100372.72;5070103;28;20020;-66
2023/10/15 00:48:12;;;;;;;0.40;0.40;;;;;;;12.84;90.57;100380.56;5065606;28;20111;-67
2023/10/15 00:50:44;;;;;;;0.40;0.40;;;;;;;12.84;89.94;100378.75;5062757;28;20528;-66
2023/10/15 00:53:24;;;;;;;0.50;0.50;;;;;;;12.81;90.00;100376.22;5069077;28;20480;-67
2023/10/15 00:56:05;;;;;;;0.40;0.40;;;;;;;12.84;90.04;100385.88;5068180;28;20035;-67
2023/10/15 00:58:39;;;;;;;0.40;0.40;;;;;;;12.84;90.13;100376.09;5069091;28;20040;-67
2023/10/15 01:03:48;;;;;;;0.40;0.40;;;;;;;12.81;90.43;100365.53;5057858;28;20029;-66
2023/10/15 01:09:27;;;;;;;0.40;0.40;;;;;;;12.78;90.63;100370.94;5066996;28;20038;-67
2023/10/15 01:11:56;;;;;;;0.40;0.40;;;;;;;12.79;90.95;100363.81;5077703;28;20078;-66
2023/10/15 01:16:55;;;;;;;0.40;0.40;;;;;;;12.78;90.96;100368.28;5068360;28;20442;-66
2023/10/15 01:19:31;;;;;;;0.40;0.40;;;;;;;12.75;91.24;100365.72;5068339;28;20632;-66
2023/10/15 01:21:57;;;;;;;0.40;0.40;;;;;;;12.72;91.69;100370.31;5075477;28;20479;-67
2023/10/15 01:24:33;;;;;;;0.40;0.40;;;;;;;12.72;91.57;100370.31;5089618;28;20031;-67
2023/10/15 01:27:09;;;;;;;0.40;0.40;;;;;;;12.71;92.01;100374.78;5088865;28;20028;-66
2023/10/15 01:29:43;;;;;;;0.40;0.40;;;;;;;12.66;91.71;100365.19;5089734;28;20035;-67
2023/10/15 01:32:30;;;;;;;0.40;0.40;;;;;;;12.74;92.36;100381.81;5073746;28;20124;-67
2023/10/15 01:34:59;;;;;;;0.40;0.40;;;;;;;12.67;92.10;100362.47;5069526;28;20586;-66
2023/10/15 01:37:24;;;;;;;0.50;0.50;;;;;;;12.77;91.58;100379.00;5083727;28;20088;-66
2023/10/15 01:42:40;;;;;;;0.50;0.50;;;;;;;12.70;92.61;100373.03;5086292;28;20044;-67
2023/10/15 01:50:23;;;;;;;0.50;0.50;;;;;;;12.76;92.02;100378.16;5069248;28;20464;-67
2023/10/15 01:52:54;;;;;;;0.40;0.40;;;;;;;12.73;92.10;100367.59;5075526;28;20486;-67
2023/10/15 01:55:19;;;;;;;0.40;0.40;;;;;;;12.78;91.48;100375.44;5088176;28;20046;-67
2023/10/15 01:57:46;;;;;;;0.40;0.40;;;;;;;12.82;91.80;100383.28;5073535;28;20029;-67
2023/10/15 02:00:33;;;;;;;0.40;0.40;;;;;;;12.77;91.67;100377.22;5067469;28;20611;-67
2023/10/15 02:02:59;;;;;;;0.50;0.50;;;;;;;12.69;91.44;100365.97;5079709;28;20032;-68
2023/10/15 02:05:40;;;;;;;0.50;0.50;;;;;;;12.72;91.81;100368.50;5086022;28;20035;-67
2023/10/15 02:08:12;;;;;;;0.40;0.40;;;;;;;12.72;91.86;100370.31;5085728;28;20078;-67
2023/10/15 02:10:39;;;;;;;0.40;0.40;;;;;;;12.71;91.84;100364.13;5086712;28;20482;-67
2023/10/15 02:13:08;;;;;;;0.50;0.50;;;;;;;12.75;92.16;100370.22;5087290;28;20039;-67
2023/10/15 02:15:41;;;;;;;0.50;0.50;;;;;;;12.73;92.13;100366.72;5070989;28;20029;-67
2023/10/15 02:18:19;;;;;;;0.40;0.40;;;;;;;12.73;92.19;100369.41;5029558;28;20044;-66
2023/10/15 02:23:20;;;;;;;0.40;0.40;;;;;;;12.72;92.42;100371.19;5057793;28;20062;-67
2023/10/15 02:25:56;;;;;;;0.40;0.40;;;;;;;12.67;92.03;100365.13;5059449;28;20052;-67
2023/10/15 02:28:25;;;;;;;0.40;0.40;;;;;;;12.70;92.21;100374.84;5068928;28;20824;-67
2023/10/15 02:30:58;;;;;;;0.40;0.40;;;;;;;12.67;92.66;100367.81;5068729;28;20491;-67
2023/10/15 02:33:25;;;;;;;0.40;0.40;;;;;;;12.69;93.22;100365.06;5065510;28;20469;-67
2023/10/15 02:35:54;;;;;;;0.50;0.50;;;;;;;12.65;93.16;100366.97;5068254;28;20142;-67
2023/10/15 02:38:25;;;;;;;0.50;0.50;;;;;;;12.69;93.23;100371.28;5069911;28;20073;-67
2023/10/15 02:41:03;;;;;;;0.40;0.40;;;;;;;12.72;93.64;100370.31;5072565;28;20036;-67
2023/10/15 02:43:29;;;;;;;0.47;0.47;;;;;;;12.68;92.96;100366.91;5072273;28;20036;-67
2023/10/15 02:46:00;;;;;;;0.50;0.50;;;;;;;12.64;93.06;100370.59;5059443;28;20037;-67
2023/10/15 02:48:26;;;;;;;0.40;0.40;;;;;;;12.67;93.66;100366.91;5051671;28;20404;-67
2023/10/15 02:51:00;;;;;;;0.50;0.50;;;;;;;12.67;93.16;100372.25;5051913;28;20021;-67
2023/10/15 02:53:26;;;;;;;;;;;;;;;12.66;93.42;100371.41;5065786;28;20029;-67
2023/10/15 02:55:52;;;;;;;0.40;0.40;;;;;;;12.56;92.99;100359.31;5055697;28;19912;-67
2023/10/15 02:58:22;;;;;;;0.40;0.40;;;;;;;12.62;93.18;100375.09;5050947;28;20128;-67
2023/10/15 03:00:51;;;;;;;0.40;0.40;;;;;;;12.64;93.67;100367.91;5050112;28;20024;-67
2023/10/15 03:03:22;;;;;;;0.43;0.43;;;;;;;12.66;93.48;100363.41;5052783;28;20036;-67
2023/10/15 03:05:49;;;;;;;0.40;0.40;;;;;;;12.69;93.69;100376.63;5066072;28;20041;-67
2023/10/15 03:08:18;;;;;;;0.40;0.40;;;;;;;12.67;93.62;100367.81;5090421;28;20622;-66
2023/10/15 03:10:56;;;;;;;0.50;0.50;;;;;;;12.70;93.59;100378.38;5090242;28;20027;-66
2023/10/15 03:13:21;;;;;;;0.40;0.40;;;;;;;12.73;93.29;100375.63;5090574;28;20039;-66
2023/10/15 03:15:49;;;;;;;0.40;0.40;;;;;;;12.72;92.83;100373.84;5071904;28;20030;-66
2023/10/15 03:18:24;;;;;;;0.40;0.40;;;;;;;12.72;92.97;100371.19;5050876;28;20033;-67
2023/10/15 03:21:09;;;;;;;0.40;0.40;;;;;;;12.72;92.75;100380.97;5052526;28;20395;-67
2023/10/15 03:23:35;;;;;;;0.40;0.40;;;;;;;12.74;93.18;100374.69;5062214;28;20032;-66
2023/10/15 03:26:00;;;;;;;0.40;0.40;;;;;;;12.73;93.35;100375.63;5068310;28;20540;-66
2023/10/15 03:28:26;;;;;;;0.40;0.40;;;;;;;12.72;93.43;100376.53;5033049;28;20078;-67
2023/10/15 03:30:54;;;;;;;0.47;0.47;;;;;;;12.70;93.33;100375.69;5054206;28;20528;-67
2023/10/15 03:33:23;;;;;;;0.40;0.40;;;;;;;12.70;93.89;100381.03;5056244;28;20043;-66
2023/10/15 03:35:54;;;;;;;0.40;0.40;;;;;;;12.66;94.01;100379.41;5071843;28;20029;-66
2023/10/15 03:38:23;;;;;;;0.40;0.40;;;;;;;12.65;94.19;100383.00;5070445;28;20021;-66
2023/10/15 03:41:06;;;;;;;0.40;0.40;;;;;;;12.61;94.58;100391.16;5053363;28;20053;-66
2023/10/15 03:43:35;;;;;;;0.40;0.40;;;;;;;12.64;94.84;100381.25;5051396;28;20024;-66
2023/10/15 03:46:13;;;;;;;0.40;0.40;;;;;;;12.66;95.03;100378.53;5037518;28;20507;-66
2023/10/15 03:48:47;;;;;;;0.50;0.50;;;;;;;12.66;95.51;100387.41;5070905;28;20042;-67
2023/10/15 03:51:20;;;;;;;0.35;0.35;;;;;;;12.62;95.54;100391.09;5071398;28;20021;-66
2023/10/15 03:53:49;;;;;;;0.50;0.50;;;;;;;12.64;96.68;100399.06;5032646;28;20037;-66
2023/10/15 03:56:27;;;;;;;0.50;0.50;;;;;;;12.59;96.40;100385.88;5063517;28;20071;-66
2023/10/15 03:58:52;;;;;;;0.50;0.50;;;;;;;12.59;97.04;100396.56;5069916;28;20105;-66
2023/10/15 04:01:18;;;;;;;0.50;0.50;;;;;;;12.52;97.67;100395.03;5068428;28;20029;-67
2023/10/15 04:03:49;;;;;;;0.40;0.40;;;;;;;12.52;97.86;100395.03;5068477;28;20023;-67
2023/10/15 04:06:16;;;;;;;0.40;0.40;;;;;;;12.53;97.76;100398.56;5059154;28;20124;-66
2023/10/15 04:08:59;;;;;;;0.50;0.50;;;;;;;12.52;97.84;100400.34;5048874;28;20028;-67
2023/10/15 04:11:59;;;;;;;0.50;0.50;;;;;;;12.52;97.79;100403.03;5072396;28;20605;-66
2023/10/15 04:14:22;;;;;;;0.50;0.50;;;;;;;12.48;97.19;100382.72;5087089;28;20123;-68
2023/10/15 04:16:50;;;;;;;0.50;0.50;;;;;;;12.47;97.59;100385.44;5091059;28;20024;-67
2023/10/15 04:19:19;;;;;;;0.50;0.50;;;;;;;12.56;97.21;100399.34;5090839;28;20031;-67
2023/10/15 04:21:45;;;;;;;0.40;0.40;;;;;;;12.58;97.23;100396.63;5087222;28;20027;-67
2023/10/15 04:24:14;;;;;;;0.50;0.50;;;;;;;12.63;96.66;100405.34;5090881;28;20106;-67
2023/10/15 04:26:42;;;;;;;0.50;0.50;;;;;;;12.67;96.23;100394.50;5090822;28;20020;-66
2023/10/15 04:29:30;;;;;;;0.50;0.50;;;;;;;12.71;96.64;100390.81;5088725;28;20047;-66
2023/10/15 04:32:00;;;;;;;0.40;0.40;;;;;;;12.75;96.48;100397.75;5080253;28;20016;-67
2023/10/15 04:34:28;;;;;;;0.40;0.40;;;;;;;12.74;96.69;100392.47;5068433;28;20032;-67
2023/10/15 04:36:57;;;;;;;0.40;0.40;;;;;;;12.66;97.98;100398.09;5088556;28;20100;-66
2023/10/15 04:39:22;;;;;;;0.40;0.40;;;;;;;12.66;97.52;100414.13;5090580;28;20092;-67
2023/10/15 04:41:49;;;;;;;0.40;0.40;;;;;;;12.67;98.09;100409.63;5077937;28;20044;-67
2023/10/15 04:44:26;;;;;;;0.40;0.40;;;;;;;12.66;98.82;100403.44;5070175;28;20028;-67
2023/10/15 04:46:58;;;;;;;0.50;0.50;;;;;;;12.71;99.94;100411.28;5072704;28;20055;-66
2023/10/15 04:49:24;;;;;;;0.50;0.50;;;;;;;12.70;100.00;100413.06;5089781;28;20032;-67
2023/10/15 04:51:52;;;;;;;0.50;0.50;;;;;;;12.65;100.00;100423.03;5089141;28;20065;-67
2023/10/15 04:54:17;;;;;;;0.40;0.40;;;;;;;12.57;100.00;100409.06;5088505;28;20684;-67
2023/10/15 04:56:43;;;;;;;0.40;0.40;;;;;;;12.58;100.00;100409.97;5080118;28;20119;-66
2023/10/15 04:59:08;;;;;;;0.40;0.40;;;;;;;12.57;100.00;100406.41;5069069;28;20024;-66
2023/10/15 05:01:34;;;;;;;0.40;0.40;;;;;;;12.56;100.00;100401.13;5072967;28;20040;-67
2023/10/15 05:04:00;;;;;;;0.40;0.40;;;;;;;12.51;99.50;100409.28;5069015;28;20214;-66
2023/10/15 05:06:26;;;;;;;0.50;0.50;;;;;;;12.47;98.98;100407.63;5070630;28;20024;-66
2023/10/15 05:08:53;;;;;;;0.50;0.50;;;;;;;12.51;98.23;100419.97;5086984;28;20035;-66
2023/10/15 05:11:21;;;;;;;0.50;0.50;;;;;;;12.47;97.06;100418.31;5089605;28;20559;-66
2023/10/15 05:13:48;;;;;;;0.50;0.50;;;;;;;12.45;96.69;100414.84;5084516;28;20024;-66
2023/10/15 05:16:14;;;;;;;0.40;0.40;;;;;;;12.49;96.39;100408.47;5089805;28;20019;-66
2023/10/15 05:18:40;;;;;;;0.40;0.40;;;;;;;12.49;96.07;100421.81;5090009;28;20020;-67
2023/10/15 05:21:05;;;;;;;0.45;0.45;;;;;;;12.36;95.68;100417.81;5089723;28;20039;-67
2023/10/15 05:23:31;;;;;;;0.43;0.43;;;;;;;12.37;96.31;100421.38;5085281;28;20035;-66
2023/10/15 05:25:56;;;;;;;0.50;0.50;;;;;;;12.32;96.33;100421.50;5089750;28;20119;-65
2023/10/15 05:28:22;;;;;;;0.50;0.50;;;;;;;12.31;96.37;100418.88;5089621;28;20024;-65
2023/10/15 05:30:49;;;;;;;0.45;0.45;;;;;;;12.28;96.40;100421.66;5088571;28;20028;-66
2023/10/15 05:33:16;;;;;;;0.50;0.50;;;;;;;12.27;96.85;100426.13;5070885;28;20023;-67
2023/10/15 05:35:49;;;;;;;0.50;0.50;;;;;;;12.23;96.81;100423.59;5071396;28;20068;-66
2023/10/15 05:38:16;;;;;;;0.40;0.40;;;;;;;12.21;96.57;100420.97;5086634;28;20028;-66
2023/10/15 05:40:44;;;;;;;0.50;0.50;;;;;;;12.20;96.73;100429.03;5089391;28;20028;-66
2023/10/15 05:43:10;;;;;;;0.50;0.50;;;;;;;12.19;96.54;100430.81;5085072;28;20024;-66
2023/10/15 05:45:35;;;;;;;0.50;0.50;;;;;;;12.20;97.06;100429.03;5088683;28;20459;-66
2023/10/15 05:48:01;;;;;;;0.50;0.50;;;;;;;12.21;97.08;100439.66;5088280;28;20490;-67
2023/10/15 05:50:26;;;;;;;0.50;0.50;;;;;;;12.24;97.29;100428.88;5071356;28;20040;-66
2023/10/15 05:52:52;;;;;;;0.50;0.50;;;;;;;12.25;97.17;100446.66;5074068;28;20038;-66
2023/10/15 05:55:19;;;;;;;0.50;0.50;;;;;;;12.19;96.99;100449.50;5087964;28;20028;-66
2023/10/15 05:57:46;;;;;;;0.50;0.50;;;;;;;12.15;96.73;100445.19;5067480;28;20035;-66
2023/10/15 06:00:17;;;;;;;0.50;0.50;;;;;;;12.17;97.28;100451.34;5069090;28;20032;-66
2023/10/15 06:02:46;;;;;;;0.50;0.50;;;;;;;12.20;97.30;100453.91;5068034;28;20674;-66
2023/10/15 06:05:13;;;;;;;0.50;0.50;;;;;;;12.24;97.32;100452.03;5053012;28;20036;-66
2023/10/15 06:07:40;;;;;;;0.50;0.50;;;;;;;12.28;97.22;100457.22;5071821;28;21114;-66
2023/10/15 06:10:07;;;;;;;0.50;0.50;;;;;;;12.30;97.02;100458.03;5083171;28;20119;-66
2023/10/15 06:12:33;;;;;;;0.50;0.50;;;;;;;12.33;96.79;100463.28;5070038;28;20130;-66
2023/10/15 06:14:59;;;;;;;0.50;0.50;;;;;;;12.33;96.54;100468.59;5073049;28;20460;-67
2023/10/15 06:17:25;;;;;;;0.47;0.47;;;;;;;12.36;96.41;100473.84;5092577;28;20701;-66
2023/10/15 06:19:51;;;;;;;0.50;0.50;;;;;;;12.36;96.72;100473.84;5082441;28;20039;-66
2023/10/15 06:22:16;;;;;;;0.40;0.40;;;;;;;12.33;96.67;100467.72;5091902;28;20421;-66
2023/10/15 06:24:46;;;;;;;0.50;0.50;;;;;;;12.36;96.19;100472.94;5089839;28;20028;-65
2023/10/15 06:27:15;;;;;;;0.50;0.50;;;;;;;12.35;95.84;100476.56;5072066;28;20024;-66
2023/10/15 06:29:41;;;;;;;0.50;0.50;;;;;;;12.37;95.81;100480.06;5072033;28;20460;-66
2023/10/15 06:32:06;;;;;;;0.50;0.50;;;;;;;12.33;95.03;100484.59;5071813;28;20107;-66
2023/10/15 06:34:32;;;;;;;0.50;0.50;;;;;;;12.33;94.84;100476.59;5080707;28;20030;-67
2023/10/15 06:36:57;;;;;;;0.40;0.40;;;;;;;12.11;95.28;100435.53;5091791;28;20119;-66
2023/10/15 06:39:23;;;;;;;0.50;0.50;;;;;;;12.41;95.46;100477.22;5089986;28;20032;-67
2023/10/15 06:41:48;;;;;;;0.50;0.50;;;;;;;12.48;95.18;100477.91;5073145;28;20032;-66
2023/10/15 06:44:15;;;;;;;0.50;0.50;;;;;;;12.61;95.19;100479.22;5087383;28;20551;-65
2023/10/15 06:46:40;;;;;;;0.50;0.50;;;;;;;12.76;95.02;100490.28;5079969;28;20036;-66
2023/10/15 06:49:07;;;;;;;0.50;0.50;;;;;;;12.82;94.61;100482.06;5071097;28;20054;-66
2023/10/15 06:51:33;;;;;;;0.50;0.50;;;;;;;12.97;93.79;100494.88;5055081;28;20023;-68
2023/10/15 06:53:59;;;;;;;0.50;0.50;;;;;;;12.96;92.96;100490.44;5086768;28;20028;-68
2023/10/15 06:56:25;;;;;;;0.50;0.50;;;;;;;13.02;91.92;100503.63;5090956;28;20032;-68
2023/10/15 06:58:50;;;;;;;0.50;0.50;;;;;;;13.00;91.43;100509.91;5092353;28;20027;-68
2023/10/15 07:01:16;;;;;;;0.40;0.40;;;;;;;12.88;91.54;100500.50;5081181;28;20036;-68
2023/10/15 07:03:41;;;;;;;0.40;0.40;;;;;;;12.90;91.45;100509.34;5071771;28;20129;-68
2023/10/15 07:06:08;;;;;;;0.43;0.43;;;;;;;12.87;91.98;100516.59;5079575;28;20084;-68
2023/10/15 07:08:34;;;;;;;0.40;0.40;;;;;;;12.79;92.10;100515.97;5092127;28;20035;-68
2023/10/15 07:10:59;;;;;;;0.50;0.50;;;;;;;12.67;91.67;100517.25;5082752;28;20050;-68
2023/10/15 07:13:25;;;;;;;0.43;0.43;;;;;;;12.67;92.29;100527.94;5071776;28;20064;-68
2023/10/15 07:15:50;;;;;;;0.50;0.50;;;;;;;12.67;93.06;100522.59;5071765;28;20034;-68
2023/10/15 07:18:16;;;;;;;0.50;0.50;;;;;;;13.37;99.96;100521.09;5071792;28;20033;-69
2023/10/15 07:20:41;;;;;;;0.40;0.40;;;;;;;15.91;94.87;100531.09;5074269;28;20032;-68
2023/10/15 07:23:07;;;;;;;0.40;0.40;;;;;;;18.54;76.09;100531.78;5064096;28;20036;-69
2023/10/15 07:25:33;;;;;;;0.30;0.30;;;;;;;20.73;62.49;100533.44;5081245;28;20036;-69
2023/10/15 07:27:59;;;;;;;0.30;0.30;;;;;;;22.14;53.17;100525.41;5082234;28;20055;-69
2023/10/15 07:30:26;;;;;;;0.28;0.28;;;;;;;22.94;47.89;100542.03;5089884;28;20048;-70
2023/10/15 07:32:57;;;;;;;0.20;0.20;;;;;;;23.67;46.81;100525.56;5088814;28;20023;-69
2023/10/15 07:35:25;;;;;;;0.20;0.20;;;;;;;24.43;43.09;100532.06;5092047;28;20104;-69
2023/10/15 07:37:51;;;;;;;0.20;0.20;;;;;;;25.13;42.77;100544.31;5093033;28;20031;-66
2023/10/15 07:40:21;;;;;;;0.20;0.20;;;;;;;25.42;41.74;100534.56;5088979;28;20024;-72
2023/10/15 07:42:50;;;;;;;0.20;0.20;;;;;;;25.64;40.84;100537.19;5075019;28;20490;-72
2023/10/15 07:45:17;;;;;;;0.20;0.20;;;;;;;25.00;41.64;100532.72;5095661;28;20107;-72
2023/10/15 07:47:42;;;;;;;0.20;0.20;;;;;;;24.34;43.18;100539.13;5076935;28;20024;-71
2023/10/15 07:50:12;;;;;;;0.20;0.20;;;;;;;24.03;42.91;100544.41;5071939;28;20684;-69
2023/10/15 07:52:39;;;;;;;0.20;0.20;;;;;;;24.27;42.86;100542.44;5080750;28;20506;-70
2023/10/15 07:55:06;;;;;;;0.17;0.17;;;;;;;23.97;42.72;100553.03;5096602;28;20044;-71
2023/10/15 07:57:32;;;;;;;0.20;0.20;;;;;;;22.43;45.27;100551.28;5092601;28;20070;-71
2023/10/15 08:00:00;;;;;;;0.20;0.20;;;;;;;21.24;48.35;100545.31;5055770;28;20591;-71
2023/10/15 08:02:27;;;;;;;0.20;0.20;;;;;;;20.73;50.66;100558.63;5086905;28;20032;-71
2023/10/15 08:04:55;;;;;;;0.20;0.20;;;;;;;20.37;52.09;100558.31;5092745;28;20035;-71
2023/10/15 08:07:21;;;;;;;0.20;0.20;;;;;;;20.95;51.16;100549.97;5093872;28;20027;-73
2023/10/15 08:09:47;;;;;;;0.20;0.20;;;;;;;22.38;48.23;100542.59;5090984;28;20055;-71
2023/10/15 08:12:13;;;;;;;0.20;0.20;;;;;;;23.73;44.99;100538.66;5040425;28;20088;-72
2023/10/15 08:14:38;;;;;;;0.20;0.20;;;;;;;24.21;43.16;100537.50;5053411;28;20439;-72
2023/10/15 08:17:04;;;;;;;0.20;0.20;;;;;;;23.93;42.79;100548.81;5057000;28;20037;-72
2023/10/15 08:19:29;;;;;;;0.20;0.20;;;;;;;24.01;42.85;100549.09;5051389;28;20021;-70
2023/10/15 08:21:56;;;;;;;0.10;0.10;;;;;;;24.31;42.25;100549.38;5053286;28;20029;-70
2023/10/15 08:24:21;;;;;;;0.10;0.10;;;;;;;24.91;41.16;100560.69;5050328;28;20115;-71
2023/10/15 08:26:47;;;;;;;0.10;0.10;;;;;;;25.15;40.02;100553.22;5070812;28;20429;-70
2023/10/15 08:29:13;;;;;;;0.20;0.20;;;;;;;23.60;42.22;100565.03;5069777;28;20398;-70
2023/10/15 08:31:38;;;;;;;0.20;0.20;;;;;;;22.75;44.62;100579.63;5062011;28;20794;-69
2023/10/15 08:34:04;;;;;;;0.20;0.20;;;;;;;21.66;45.21;100574.88;5049571;28;20041;-69
2023/10/15 08:36:29;;;;;;;0.10;0.10;;;;;;;21.15;47.88;100567.63;5063173;28;20039;-70
2023/10/15 08:38:54;;;;;;;0.20;0.20;;;;;;;20.34;47.44;100568.47;5067318;28;20541;-71
2023/10/15 08:41:27;;;;;;;0.20;0.20;;;;;;;19.33;49.64;100562.13;5050404;28;20082;-69
2023/10/15 08:43:53;;;;;;;0.13;0.13;;;;;;;18.42;51.71;100565.66;5067092;28;20034;-70
2023/10/15 08:46:22;;;;;;;0.30;0.30;;;;;;;17.85;54.99;100556.25;5070718;28;20047;-70
2023/10/15 08:48:49;;;;;;;0.20;0.20;;;;;;;18.93;54.79;100556.47;5068151;28;20020;-70
2023/10/15 08:51:21;;;;;;;0.20;0.20;;;;;;;19.72;52.03;100549.88;5050692;28;20025;-70
2023/10/15 08:53:49;;;;;;;0.20;0.20;;;;;;;20.56;48.98;100548.03;5066774;28;20028;-69
2023/10/15 08:56:21;;;;;;;0.20;0.20;;;;;;;21.36;47.72;100536.38;5050506;28;20085;-69
2023/10/15 08:58:52;;;;;;;0.20;0.20;;;;;;;22.15;44.41;100556.94;5070468;28;20024;-69
2023/10/15 09:01:18;;;;;;;0.20;0.20;;;;;;;22.43;43.35;100555.81;5045208;28;20499;-69
2023/10/15 09:03:43;;;;;;;0.20;0.20;;;;;;;22.80;43.61;100566.59;5049441;28;20554;-68
2023/10/15 09:06:09;;;;;;;0.20;0.20;;;;;;;23.31;42.67;100557.28;5032013;28;20116;-69
2023/10/15 09:08:35;;;;;;;0.10;0.10;;;;;;;23.22;42.94;100557.09;5055608;28;20032;-68
2023/10/15 09:11:01;;;;;;;0.10;0.10;;;;;;;22.73;43.30;100562.63;5030803;28;20585;-69
2023/10/15 09:13:26;;;;;;;0.20;0.20;;;;;;;22.87;41.85;100573.31;5048933;28;20043;-70
2023/10/15 09:15:52;;;;;;;0.10;0.10;;;;;;;22.69;41.19;100580.09;5051150;28;20035;-70
2023/10/15 09:18:18;;;;;;;0.20;0.20;;;;;;;21.73;42.92;100579.75;5048599;28;20028;-71
2023/10/15 09:20:51;;;;;;;0.10;0.10;;;;;;;20.49;44.83;100581.00;5048958;28;20495;-70
2023/10/15 09:23:21;;;;;;;0.10;0.10;;;;;;;19.58;46.36;100583.13;5057225;28;20039;-71
2023/10/15 09:25:50;;;;;;;0.20;0.20;;;;;;;19.55;48.77;100577.91;5065725;28;20112;-71
2023/10/15 09:28:16;;;;;;;0.20;0.20;;;;;;;20.23;47.71;100588.03;5052162;28;20131;-70
2023/10/15 09:30:46;;;;;;;0.10;0.10;;;;;;;21.17;47.25;100581.91;5055123;28;20506;-70
2023/10/15 09:33:12;;;;;;;0.10;0.10;;;;;;;20.95;44.88;100577.03;5068211;28;20107;-71
2023/10/15 09:35:38;;;;;;;0.20;0.20;;;;;;;21.25;44.83;100571.44;5066986;28;21959;-71
2023/10/15 09:38:04;;;;;;;0.10;0.10;;;;;;;21.07;44.42;100570.81;5067663;28;20025;-71
2023/10/15 09:40:32;;;;;;;0.20;0.20;;;;;;;21.23;43.97;100576.97;5055119;28;20021;-70
2023/10/15 09:42:59;;;;;;;0.10;0.10;;;;;;;21.69;44.50;100574.66;5048783;28;20032;-70
2023/10/15 09:45:25;;;;;;;0.10;0.10;;;;;;;21.27;41.99;100577.63;5037159;28;20063;-70
2023/10/15 09:48:00;;;;;;;0.10;0.10;;;;;;;21.18;43.91;100575.53;5064670;28;20063;-71
2023/10/15 09:50:38;;;;;;;0.20;0.20;;;;;;;21.71;43.31;100580.84;5069112;28;20831;-70
2023/10/15 09:53:10;;;;;;;0.20;0.20;;;;;;;21.88;42.05;100580.56;5061949;28;20028;-70
2023/10/15 09:55:37;;;;;;;0.10;0.10;;;;;;;21.21;42.92;100580.72;5067845;28;20060;-71
2023/10/15 09:58:04;;;;;;;0.10;0.10;;;;;;;21.16;43.38;100585.56;5062729;28;20043;-71
2023/10/15 10:03:37;;;;;;;0.20;0.20;;;;;;;20.31;43.59;100583.00;5061338;28;20028;-71
2023/10/15 10:06:24;;;;;;;0.20;0.20;;;;;;;20.32;43.73;100582.06;5058978;28;20060;-71
2023/10/15 10:09:10;;;;;;;0.20;0.20;;;;;;;19.99;45.36;100588.66;5051233;28;20033;-72
2023/10/15 10:11:45;;;;;;;0.20;0.20;;;;;;;20.28;44.58;100602.13;5057760;28;20097;-71
2023/10/15 10:14:36;;;;;;;0.20;0.20;;;;;;;19.70;45.03;100589.59;5073874;28;20026;-72
2023/10/15 10:17:02;;;;;;;0.13;0.13;;;;;;;18.81;45.26;100589.50;5061583;28;20032;-72
2023/10/15 10:19:28;;;;;;;0.20;0.20;;;;;;;17.83;46.08;100579.66;5050249;28;20020;-72
2023/10/15 10:21:55;;;;;;;0.20;0.20;;;;;;;17.38;48.41;100589.25;5068359;28;20437;-70
2023/10/15 10:24:23;;;;;;;0.20;0.20;;;;;;;16.66;49.80;100586.56;5068415;28;20063;-71
2023/10/15 10:26:55;;;;;;;0.20;0.20;;;;;;;16.13;51.48;100581.97;5066475;28;20113;-71
2023/10/15 10:29:26;;;;;;;0.30;0.30;;;;;;;15.93;53.54;100576.66;5065148;28;20032;-71
2023/10/15 10:31:54;;;;;;;0.28;0.28;;;;;;;15.85;55.20;100576.13;5067818;28;20584;-71
2023/10/15 10:34:30;;;;;;;0.30;0.30;;;;;;;15.60;54.77;100582.56;5068576;28;20775;-71
2023/10/15 10:36:55;;;;;;;0.30;0.30;;;;;;;15.54;55.63;100580.16;5082529;28;20028;-71
2023/10/15 10:39:22;;;;;;;0.30;0.30;;;;;;;16.56;55.51;100581.72;5052543;28;20054;-71
2023/10/15 10:41:58;;;;;;;0.30;0.30;;;;;;;17.88;51.47;100580.28;5070054;28;20029;-71
2023/10/15 10:44:23;;;;;;;0.25;0.25;;;;;;;19.29;48.10;100570.50;5069242;28;20039;-71
2023/10/15 10:46:52;;;;;;;0.30;0.30;;;;;;;19.67;45.70;100581.69;5053606;28;20092;-70
2023/10/15 10:49:29;;;;;;;0.20;0.20;;;;;;;19.81;44.48;100579.88;5087228;28;20020;-70
2023/10/15 10:52:17;;;;;;;0.20;0.20;;;;;;;20.53;42.41;100579.81;5059681;28;20471;-70
2023/10/15 10:54:45;;;;;;;0.20;0.20;;;;;;;20.70;42.31;100580.47;5050371;28;20445;-69
2023/10/15 10:57:11;;;;;;;0.20;0.20;;;;;;;21.14;43.73;100573.97;5049840;28;20029;-69
2023/10/15 10:59:38;;;;;;;0.20;0.20;;;;;;;20.45;42.52;100569.50;5051959;28;20037;-69
2023/10/15 11:02:13;;;;;;;0.20;0.20;;;;;;;19.75;42.75;100574.00;5073134;28;20416;-69
2023/10/15 11:04:40;;;;;;;0.20;0.20;;;;;;;18.89;43.15;100581.84;5052240;28;20502;-69
2023/10/15 11:07:07;;;;;;;0.20;0.20;;;;;;;18.02;44.27;100577.72;5051627;28;20083;-70
2023/10/15 11:09:37;;;;;;;0.20;0.20;;;;;;;18.73;46.33;100575.59;5051531;28;20024;-71
2023/10/15 11:12:04;;;;;;;0.20;0.20;;;;;;;19.84;43.58;100579.69;5072929;28;20058;-70
2023/10/15 11:14:29;;;;;;;0.20;0.20;;;;;;;20.55;42.09;100573.34;5082408;28;20034;-71
2023/10/15 11:16:56;;;;;;;0.20;0.20;;;;;;;20.68;41.34;100576.13;5073104;28;20028;-70
2023/10/15 11:19:24;;;;;;;0.20;0.20;;;;;;;21.26;40.82;100573.16;5089926;28;20038;-71
2023/10/15 11:21:51;;;;;;;0.17;0.17;;;;;;;22.15;41.27;100573.22;5073120;28;20020;-70
2023/10/15 11:24:18;;;;;;;0.10;0.10;;;;;;;22.59;38.54;100573.59;5089319;28;20028;-70
2023/10/15 11:26:44;;;;;;;0.20;0.20;;;;;;;21.70;37.67;100565.56;5084514;28;20024;-69
2023/10/15 11:29:12;;;;;;;0.10;0.10;;;;;;;22.73;38.54;100575.31;5071955;28;20024;-69
2023/10/15 11:31:42;;;;;;;0.15;0.15;;;;;;;23.22;36.04;100567.94;5073356;28;20506;-70
2023/10/15 11:34:09;;;;;;;0.10;0.10;;;;;;;23.39;37.15;100571.13;5092886;28;20454;-71
2023/10/15 11:36:36;;;;;;;0.10;0.10;;;;;;;22.97;36.54;100584.34;5080237;28;20032;-70
2023/10/15 11:39:09;;;;;;;0.10;0.10;;;;;;;23.05;36.65;100577.34;5053980;28;20028;-70
2023/10/15 11:41:38;;;;;;;0.10;0.10;;;;;;;22.62;35.99;100576.09;5088704;28;20103;-71
2023/10/15 11:44:06;;;;;;;0.10;0.10;;;;;;;21.97;36.03;100585.34;5088588;28;20101;-69
2023/10/15 11:46:35;;;;;;;0.10;0.10;;;;;;;20.98;37.80;100586.78;5092559;28;20100;-70
2023/10/15 11:49:01;;;;;;;0.20;0.20;;;;;;;20.06;40.14;100585.50;5074209;28;20051;-71
2023/10/15 11:51:30;;;;;;;0.20;0.20;;;;;;;19.43;42.50;100578.63;5071331;28;20107;-71
2023/10/15 11:54:09;;;;;;;0.20;0.20;;;;;;;19.44;42.91;100574.97;5086027;28;20028;-71